Norwich, VT

8:03 AM EST on January 26, 2015 (GMT -0500)
Montshire Museum | Change Station
CLOSE
Current Station
Personal Weather Station
Location: Norwich, VT
Elevation: 436 ft
Nearby Weather Stations
Active Advisory: Winter Storm Warning

Elev 436 ft 43.70 °N, 72.31 °W | Updated 11 seconds ago

Partly Cloudy
Partly Cloudy
-1.3 °F
Feels Like -1 °F
N
0.0
Wind Variable Wind from NNW
Gusts 0.0 mph

Today
High -- | Low -- °F
--% Chance of Precip.
Yesterday
High -- | Low -- °F
Precip. -- in
7:12 AM 4:51 PM
Waxing Crescent, 43% visible
Pressure 30.21 in
Visibility 10.0 miles
Clouds Clear
Windchill -1 °F
Dew Point -6 °F
Humidity 85%
Rainfall 0.00 in
Snow Depth Not available.
UV 0 out of 12
Pollen .10 out of 12
Air Quality Not available.
Flu Activity Not available.
METAR KLEB 261253Z AUTO 35003KT 10SM CLR M17/M20 A3015 RMK AO2 SLP230 T11721200

More Conditions Fewer Conditions

Pressure 30.21 in
Visibility 10.0 miles
Clouds Clear
Windchill -1 °F
Dew Point -6 °F
Humidity 85%
Rainfall 0.00 in
Snow Depth Not available.
UV 0 out of 12
Pollen .10 out of 12
Air Quality Not available.
Flu Activity Not available.
METAR KLEB 261253Z AUTO 35003KT 10SM CLR M17/M20 A3015 RMK AO2 SLP230 T11721200

More Conditions Fewer Conditions

10-Day Weather Forecast

Almanac

Astronomy

Jan. 26, 2015 Rise Set
Actual Time
Civil Twilight
Nautical Twilight
Astronomical Twilight
Moon
Length of Visible Light
Length of Day
Tomorrow will be .
, % of the Moon is Illuminated

Today's Extremes

State Highs State Lows

Community

WunderPhotos

Upload Photos

1,790,191 photos uploaded!

WunderBlogs® & News

Nearby

Air Quality

  Air Quality AQ Index Pollutant
Not available.

Snow Depth

Station Depth Elevation

Earthquake Activity

City Distance Mag. Time & Date
Minimum magnitude displayed is 2.5.

Coastal Water Temperatures

Place Temperature

Nearby Weather Stations